createdAt,value
2023-11-22T00:00:24.009Z,95.40
2023-11-22T00:00:55.877Z,95.70
2023-11-22T00:01:28.502Z,95.45
2023-11-22T00:02:00.447Z,95.63
2023-11-22T00:02:32.364Z,95.48
2023-11-22T00:03:04.290Z,95.87
2023-11-22T00:03:36.196Z,95.62
2023-11-22T00:04:11.009Z,96.14
2023-11-22T00:04:42.853Z,95.76
2023-11-22T00:05:14.730Z,96.22
2023-11-22T00:05:47.817Z,96.25
2023-11-22T00:06:21.789Z,96.74
2023-11-22T00:06:53.676Z,95.86
2023-11-22T00:07:25.492Z,96.40
2023-11-22T00:07:58.211Z,96.46
2023-11-22T00:08:30.717Z,96.65
2023-11-22T00:09:02.672Z,97.11
2023-11-22T00:09:34.484Z,97.13
2023-11-22T00:10:07.405Z,96.73
2023-11-22T00:10:39.307Z,96.44
2023-11-22T00:11:11.202Z,97.24
2023-11-22T00:11:43.080Z,96.67
2023-11-22T00:12:14.964Z,97.14
2023-11-22T00:12:46.810Z,97.10
2023-11-22T00:13:18.628Z,97.00
2023-11-22T00:13:50.481Z,97.02
2023-11-22T00:14:22.767Z,97.08
2023-11-22T00:14:55.144Z,97.57
2023-11-22T00:15:27.319Z,97.08
2023-11-22T00:15:59.149Z,97.65
2023-11-22T00:16:31.480Z,97.45
2023-11-22T00:17:03.703Z,97.55
2023-11-22T00:17:36.213Z,97.18
2023-11-22T00:18:08.284Z,97.01
2023-11-22T00:18:40.334Z,97.19
2023-11-22T00:19:12.210Z,97.15
2023-11-22T00:19:45.535Z,97.70
2023-11-22T00:20:18.723Z,98.03
2023-11-22T00:20:50.577Z,97.57
2023-11-22T00:21:22.399Z,97.99
2023-11-22T00:21:54.214Z,97.56
2023-11-22T00:22:28.600Z,98.06
2023-11-22T00:23:01.037Z,97.68
2023-11-22T00:23:33.778Z,97.67
2023-11-22T00:24:06.162Z,97.56
2023-11-22T00:24:38.257Z,97.69
2023-11-22T00:25:12.687Z,97.77
2023-11-22T00:25:46.299Z,97.94
2023-11-22T00:26:18.165Z,97.37
2023-11-22T00:26:50.586Z,97.31
2023-11-22T00:27:23.152Z,98.15
2023-11-22T00:27:56.484Z,97.67
2023-11-22T00:28:28.495Z,97.44
2023-11-22T00:29:00.553Z,97.97
2023-11-22T00:29:32.468Z,97.40
2023-11-22T00:30:05.560Z,97.91
2023-11-22T00:30:37.460Z,97.68
2023-11-22T00:31:09.377Z,97.88
2023-11-22T00:31:41.636Z,97.84
2023-11-22T00:32:13.770Z,97.59
2023-11-22T00:32:45.825Z,97.56
2023-11-22T00:33:19.277Z,97.73
2023-11-22T00:33:51.096Z,97.62
2023-11-22T00:34:24.202Z,98.41
2023-11-22T00:34:56.143Z,97.94
2023-11-22T00:35:28.289Z,97.69
2023-11-22T00:36:00.183Z,98.47
2023-11-22T00:36:32.025Z,98.44
2023-11-22T00:37:03.835Z,98.22
2023-11-22T00:37:35.995Z,98.60
2023-11-22T00:38:07.867Z,98.62
2023-11-22T00:38:40.759Z,98.05
2023-11-22T00:39:14.631Z,98.55
2023-11-22T00:39:46.467Z,98.63
2023-11-22T00:40:18.410Z,98.43
2023-11-22T00:40:51.232Z,98.73
2023-11-22T00:41:23.078Z,98.25
2023-11-22T00:41:54.957Z,98.80
2023-11-22T00:42:26.805Z,98.21
2023-11-22T00:42:59.182Z,98.67
2023-11-22T00:43:31.058Z,98.32
2023-11-22T00:44:04.805Z,98.30
2023-11-22T00:44:37.402Z,98.66
2023-11-22T00:45:10.950Z,98.56
2023-11-22T00:45:42.821Z,99.10
2023-11-22T00:46:14.711Z,98.48
2023-11-22T00:46:47.047Z,98.78
2023-11-22T00:47:18.999Z,98.89
2023-11-22T00:47:51.641Z,99.14
2023-11-22T00:48:23.620Z,98.99
2023-11-22T00:48:56.655Z,98.55
2023-11-22T00:49:28.487Z,98.79
2023-11-22T00:50:00.630Z,98.77
2023-11-22T00:50:32.505Z,99.12
2023-11-22T00:51:09.683Z,98.73
2023-11-22T00:51:41.570Z,99.29
2023-11-22T00:52:14.423Z,99.03
2023-11-22T00:52:47.370Z,98.71
2023-11-22T00:53:19.700Z,99.22
2023-11-22T00:53:52.210Z,98.62
2023-11-22T00:54:24.032Z,98.71
2023-11-22T00:54:55.865Z,99.28
2023-11-22T00:55:28.174Z,99.09
2023-11-22T00:56:00.045Z,98.99
2023-11-22T00:56:32.035Z,98.59
2023-11-22T00:57:04.037Z,98.60
2023-11-22T00:57:35.958Z,98.68
2023-11-22T00:58:08.714Z,98.70
2023-11-22T00:58:40.616Z,99.02
2023-11-22T00:59:12.530Z,99.12
2023-11-22T00:59:44.756Z,98.55
2023-11-22T01:00:17.030Z,98.89
2023-11-22T01:00:48.847Z,98.66
2023-11-22T01:01:21.225Z,98.96
2023-11-22T01:01:53.182Z,98.34
2023-11-22T01:02:25.056Z,98.58
2023-11-22T01:02:56.996Z,99.13
2023-11-22T01:03:28.975Z,99.01
2023-11-22T01:04:00.958Z,98.63
2023-11-22T01:04:35.279Z,98.91
2023-11-22T01:05:12.441Z,98.43
2023-11-22T01:05:44.548Z,98.82
2023-11-22T01:06:16.397Z,98.92
2023-11-22T01:06:48.226Z,99.11
2023-11-22T01:07:20.036Z,99.35
2023-11-22T01:07:51.981Z,98.99
2023-11-22T01:08:23.833Z,99.21
2023-11-22T01:08:55.795Z,99.13
2023-11-22T01:09:29.833Z,98.38
2023-11-22T01:10:01.954Z,98.61
2023-11-22T01:10:33.778Z,98.41
2023-11-22T01:11:06.918Z,98.54
2023-11-22T01:11:39.019Z,98.88
2023-11-22T01:12:13.133Z,98.49
2023-11-22T01:12:45.352Z,98.19
2023-11-22T01:13:17.217Z,99.00
2023-11-22T01:13:49.492Z,98.84
2023-11-22T01:14:21.382Z,98.48
2023-11-22T01:14:53.291Z,98.03
2023-11-22T01:15:25.943Z,98.22
2023-11-22T01:15:57.797Z,98.14
2023-11-22T01:16:29.649Z,98.18
2023-11-22T01:17:01.496Z,98.78
2023-11-22T01:17:34.621Z,98.02
2023-11-22T01:18:06.874Z,98.76
2023-11-22T01:18:40.230Z,98.35
2023-11-22T01:19:12.670Z,98.77
2023-11-22T01:19:44.542Z,98.77
2023-11-22T01:20:16.387Z,98.47
2023-11-22T01:20:48.248Z,99.06
2023-11-22T01:21:20.730Z,99.11
2023-11-22T01:21:52.562Z,99.14
2023-11-22T01:22:24.452Z,99.30
2023-11-22T01:22:56.326Z,98.66
2023-11-22T01:23:29.162Z,99.17
2023-11-22T01:24:01.118Z,98.44
2023-11-22T01:24:32.932Z,99.17
2023-11-22T01:25:05.863Z,98.71
2023-11-22T01:25:37.672Z,98.55
2023-11-22T01:26:09.534Z,99.26
2023-11-22T01:26:41.585Z,99.09
2023-11-22T01:27:13.493Z,99.48
2023-11-22T01:27:45.326Z,99.38
2023-11-22T01:28:18.319Z,98.75
2023-11-22T01:28:50.146Z,99.04
2023-11-22T01:29:22.010Z,98.46
2023-11-22T01:29:55.489Z,98.62
2023-11-22T01:30:29.735Z,99.37
2023-11-22T01:31:05.038Z,99.16
2023-11-22T01:31:36.913Z,99.21
2023-11-22T01:32:09.870Z,99.27
2023-11-22T01:32:41.877Z,98.86
2023-11-22T01:33:13.973Z,99.14
2023-11-22T01:33:46.078Z,98.80
2023-11-22T01:34:17.925Z,98.40
2023-11-22T01:34:49.783Z,98.65
2023-11-22T01:35:21.643Z,98.69
2023-11-22T01:35:53.477Z,99.01
2023-11-22T01:36:26.818Z,98.60
2023-11-22T01:36:58.671Z,99.16
2023-11-22T01:37:30.486Z,99.33
2023-11-22T01:38:05.450Z,98.73
2023-11-22T01:38:40.326Z,99.03
2023-11-22T01:39:16.505Z,98.56
2023-11-22T01:39:48.381Z,99.21
2023-11-22T01:40:20.862Z,99.43
2023-11-22T01:40:53.146Z,98.77
2023-11-22T01:41:25.499Z,98.44
2023-11-22T01:41:57.411Z,98.57
2023-11-22T01:42:29.254Z,98.72
2023-11-22T01:43:03.695Z,99.18
2023-11-22T01:43:35.527Z,98.80
2023-11-22T01:44:07.465Z,98.92
2023-11-22T01:44:39.407Z,98.43
2023-11-22T01:45:11.529Z,99.48
2023-11-22T01:45:43.785Z,99.29
2023-11-22T01:46:26.776Z,98.82
2023-11-22T01:46:59.432Z,98.56
2023-11-22T01:47:32.063Z,99.30
2023-11-22T01:48:04.204Z,98.57
2023-11-22T01:48:37.851Z,99.32
2023-11-22T01:49:11.453Z,98.57
2023-11-22T01:49:43.268Z,99.06
2023-11-22T01:50:16.006Z,99.36
2023-11-22T01:50:49.121Z,99.20
2023-11-22T01:51:25.785Z,98.64
2023-11-22T01:51:57.734Z,98.67
2023-11-22T01:52:29.592Z,99.33
2023-11-22T01:53:01.709Z,99.31
2023-11-22T01:53:33.721Z,98.98
2023-11-22T01:54:09.298Z,98.72
2023-11-22T01:54:43.935Z,99.05
2023-11-22T01:55:17.156Z,98.50
2023-11-22T01:55:49.648Z,98.54
2023-11-22T01:56:23.664Z,99.24
2023-11-22T01:56:56.820Z,98.37
2023-11-22T01:57:28.944Z,98.85
2023-11-22T01:58:01.119Z,99.29
2023-11-22T01:58:33.476Z,99.31
2023-11-22T01:59:06.222Z,98.51
2023-11-22T01:59:40.381Z,99.16
2023-11-22T02:00:16.144Z,99.47
2023-11-22T02:00:53.849Z,99.19
2023-11-22T02:01:27.721Z,99.23
2023-11-22T02:01:59.666Z,99.30
2023-11-22T02:02:32.858Z,99.14
2023-11-22T02:03:05.069Z,99.43
2023-11-22T02:03:37.241Z,99.01
2023-11-22T02:04:10.844Z,99.04
2023-11-22T02:04:42.725Z,98.49
2023-11-22T02:05:15.413Z,99.08
2023-11-22T02:05:47.483Z,98.99
2023-11-22T02:06:20.446Z,98.53
2023-11-22T02:06:52.753Z,98.67
2023-11-22T02:07:24.833Z,98.22
2023-11-22T02:07:56.866Z,98.09
2023-11-22T02:08:29.723Z,98.64
2023-11-22T02:09:02.305Z,98.57
2023-11-22T02:09:34.132Z,98.19
2023-11-22T02:10:08.775Z,97.91
2023-11-22T02:10:40.950Z,97.76
2023-11-22T02:11:12.797Z,97.97
2023-11-22T02:11:48.805Z,98.03
2023-11-22T02:12:21.136Z,98.27
2023-11-22T02:12:52.984Z,98.29
2023-11-22T02:13:24.821Z,98.47
2023-11-22T02:13:56.940Z,97.80
2023-11-22T02:14:28.921Z,97.81
2023-11-22T02:15:00.853Z,98.05
2023-11-22T02:15:32.932Z,97.91
2023-11-22T02:16:05.154Z,97.81
2023-11-22T02:16:38.616Z,98.44
2023-11-22T02:17:10.998Z,98.21
2023-11-22T02:17:42.953Z,98.69
2023-11-22T02:18:14.804Z,98.39
2023-11-22T02:18:48.374Z,98.11
2023-11-22T02:19:20.984Z,97.84
2023-11-22T02:19:53.048Z,97.90
2023-11-22T02:20:24.895Z,98.67
2023-11-22T02:20:57.492Z,97.93
2023-11-22T02:21:29.308Z,98.60
2023-11-22T02:22:01.307Z,98.56
2023-11-22T02:22:33.399Z,97.98
2023-11-22T02:23:10.389Z,98.03
2023-11-22T02:23:43.347Z,98.48
2023-11-22T02:24:15.261Z,98.73
2023-11-22T02:24:47.123Z,98.06
2023-11-22T02:25:18.938Z,98.74
2023-11-22T02:25:50.757Z,98.84
2023-11-22T02:26:22.739Z,98.09
2023-11-22T02:26:54.552Z,98.93
2023-11-22T02:27:26.410Z,98.76
2023-11-22T02:27:58.243Z,98.36
2023-11-22T02:28:30.455Z,98.61
2023-11-22T02:29:02.335Z,98.14
2023-11-22T02:29:34.605Z,98.91
2023-11-22T02:30:07.109Z,98.37
2023-11-22T02:30:39.370Z,98.25
2023-11-22T02:31:11.220Z,98.72
2023-11-22T02:31:46.997Z,98.81
2023-11-22T02:32:19.816Z,98.68
2023-11-22T02:32:51.684Z,98.78
2023-11-22T02:33:23.571Z,98.05
2023-11-22T02:33:56.335Z,98.02
2023-11-22T02:34:28.601Z,97.90
2023-11-22T02:35:00.820Z,98.66
2023-11-22T02:35:33.613Z,97.99
2023-11-22T02:36:05.810Z,98.14
2023-11-22T02:36:38.170Z,98.29
2023-11-22T02:37:10.021Z,97.72
2023-11-22T02:37:41.869Z,98.17
2023-11-22T02:38:13.700Z,97.56
2023-11-22T02:38:47.151Z,98.07
2023-11-22T02:39:20.005Z,97.96
2023-11-22T02:40:05.596Z,98.07
2023-11-22T02:40:37.575Z,97.89
2023-11-22T02:41:10.373Z,97.77
2023-11-22T02:41:42.371Z,97.64
2023-11-22T02:42:14.497Z,97.15
2023-11-22T02:42:50.777Z,97.72
2023-11-22T02:43:24.397Z,97.29
2023-11-22T02:43:57.723Z,98.04
2023-11-22T02:44:29.613Z,97.23
2023-11-22T02:45:01.515Z,97.44
2023-11-22T02:45:33.741Z,97.53
2023-11-22T02:46:05.632Z,97.95
2023-11-22T02:46:37.493Z,97.36
2023-11-22T02:47:11.563Z,97.68
2023-11-22T02:47:45.638Z,97.55
2023-11-22T02:48:17.646Z,97.43
2023-11-22T02:48:49.622Z,97.50
2023-11-22T02:49:21.439Z,97.56
2023-11-22T02:49:53.523Z,97.96
2023-11-22T02:50:26.594Z,98.01
2023-11-22T02:50:58.476Z,98.07
2023-11-22T02:51:30.291Z,97.33
2023-11-22T02:52:02.227Z,98.06
2023-11-22T02:52:34.171Z,97.37
2023-11-22T02:53:06.228Z,97.27
2023-11-22T02:53:38.425Z,97.31
2023-11-22T02:54:10.725Z,97.41
2023-11-22T02:54:46.805Z,97.67
2023-11-22T02:55:18.781Z,97.67
2023-11-22T02:55:50.607Z,98.05
2023-11-22T02:56:22.543Z,97.29
2023-11-22T02:56:54.396Z,97.22
2023-11-22T02:57:27.309Z,98.05
2023-11-22T02:57:59.136Z,97.44
2023-11-22T02:58:32.216Z,97.55
2023-11-22T02:59:04.329Z,97.89
2023-11-22T02:59:36.288Z,97.30
2023-11-22T03:00:09.445Z,97.20
2023-11-22T03:00:42.411Z,97.30
2023-11-22T03:01:14.426Z,98.07
2023-11-22T03:01:47.242Z,97.31
2023-11-22T03:02:19.337Z,97.55
2023-11-22T03:02:55.373Z,97.87
2023-11-22T03:03:27.964Z,97.39
2023-11-22T03:04:01.273Z,97.34
2023-11-22T03:04:33.226Z,97.25
2023-11-22T03:05:05.409Z,98.05
2023-11-22T03:05:43.639Z,98.12
2023-11-22T03:06:16.037Z,97.54
2023-11-22T03:06:47.875Z,98.45
2023-11-22T03:07:19.710Z,98.34
2023-11-22T03:07:52.304Z,97.83
2023-11-22T03:08:24.232Z,97.85
2023-11-22T03:08:56.066Z,97.59
2023-11-22T03:09:27.906Z,97.44
2023-11-22T03:10:01.614Z,97.67
2023-11-22T03:10:33.957Z,98.28
2023-11-22T03:11:05.831Z,97.71
2023-11-22T03:11:37.977Z,97.51
2023-11-22T03:12:10.229Z,98.00
2023-11-22T03:12:42.275Z,98.18
2023-11-22T03:13:14.124Z,98.58
2023-11-22T03:13:46.036Z,98.60
2023-11-22T03:14:18.269Z,98.51
2023-11-22T03:14:50.313Z,98.51
2023-11-22T03:15:22.252Z,97.90
2023-11-22T03:15:54.057Z,98.64
2023-11-22T03:16:26.014Z,98.28
2023-11-22T03:16:58.942Z,98.16
2023-11-22T03:17:31.185Z,97.47
2023-11-22T03:18:04.396Z,97.89
2023-11-22T03:18:37.249Z,97.71
2023-11-22T03:19:09.124Z,97.73
2023-11-22T03:19:41.108Z,97.97
2023-11-22T03:20:13.091Z,97.62
2023-11-22T03:20:45.209Z,98.25
2023-11-22T03:21:18.322Z,97.31
2023-11-22T03:21:50.308Z,97.79
2023-11-22T03:22:22.120Z,97.84
2023-11-22T03:22:54.072Z,97.07
2023-11-22T03:23:27.261Z,97.46
2023-11-22T03:24:01.354Z,98.13
2023-11-22T03:24:38.139Z,97.40
2023-11-22T03:25:11.458Z,97.66
2023-11-22T03:25:43.444Z,97.26
2023-11-22T03:26:15.660Z,96.77
2023-11-22T03:26:47.495Z,97.24
2023-11-22T03:27:19.651Z,97.01
2023-11-22T03:27:51.648Z,97.67
2023-11-22T03:28:23.678Z,97.66
2023-11-22T03:28:55.532Z,97.73
2023-11-22T03:29:27.433Z,97.56
2023-11-22T03:30:00.609Z,97.51
2023-11-22T03:30:32.709Z,97.28
2023-11-22T03:31:06.576Z,96.95
2023-11-22T03:31:40.072Z,97.17
2023-11-22T03:32:12.688Z,97.11
2023-11-22T03:32:45.520Z,97.20
2023-11-22T03:33:17.537Z,97.00
2023-11-22T03:33:49.446Z,97.33
2023-11-22T03:34:21.795Z,97.11
2023-11-22T03:34:53.717Z,97.45
2023-11-22T03:35:25.602Z,97.26
2023-11-22T03:35:59.158Z,96.74
2023-11-22T03:36:30.978Z,97.58
2023-11-22T03:37:02.812Z,97.48
2023-11-22T03:37:35.206Z,97.29
2023-11-22T03:38:07.107Z,97.17
2023-11-22T03:38:40.886Z,97.42
2023-11-22T03:39:12.847Z,97.30
2023-11-22T03:39:49.536Z,97.24
2023-11-22T03:40:21.584Z,97.12
2023-11-22T03:40:54.559Z,96.94
2023-11-22T03:41:26.412Z,97.54
2023-11-22T03:41:58.508Z,96.89
2023-11-22T03:42:30.823Z,97.12
2023-11-22T03:43:02.661Z,97.27
2023-11-22T03:43:34.500Z,97.31
2023-11-22T03:44:09.910Z,96.61
2023-11-22T03:44:41.981Z,97.16
2023-11-22T03:45:15.489Z,96.68
2023-11-22T03:45:47.301Z,97.11
2023-11-22T03:46:19.115Z,96.73
2023-11-22T03:46:51.056Z,96.81
2023-11-22T03:47:23.024Z,96.95
2023-11-22T03:47:54.952Z,96.86
2023-11-22T03:48:27.561Z,96.28
2023-11-22T03:49:00.023Z,96.42
2023-11-22T03:49:31.852Z,96.91
2023-11-22T03:50:03.753Z,96.12
2023-11-22T03:50:35.580Z,96.53
2023-11-22T03:51:07.534Z,97.02
2023-11-22T03:51:40.230Z,96.50
2023-11-22T03:52:12.851Z,96.67
2023-11-22T03:52:44.768Z,96.35
2023-11-22T03:53:16.722Z,96.75
2023-11-22T03:53:48.580Z,96.02
2023-11-22T03:54:20.424Z,96.52
2023-11-22T03:54:52.253Z,96.22
2023-11-22T03:55:24.312Z,96.51
2023-11-22T03:55:56.464Z,96.90
2023-11-22T03:56:28.862Z,96.32
2023-11-22T03:57:00.754Z,97.04
2023-11-22T03:57:32.592Z,96.79
2023-11-22T03:58:04.432Z,96.38
2023-11-22T03:58:37.674Z,96.94
2023-11-22T03:59:09.503Z,96.63
2023-11-22T03:59:42.038Z,95.96
2023-11-22T04:00:15.117Z,96.04
2023-11-22T04:00:47.103Z,96.89
2023-11-22T04:01:21.593Z,95.83
2023-11-22T04:01:53.513Z,96.52
2023-11-22T04:02:25.363Z,96.34
2023-11-22T04:03:00.554Z,96.50
2023-11-22T04:03:32.530Z,96.30
2023-11-22T04:04:04.593Z,96.50
2023-11-22T04:04:37.872Z,96.40
2023-11-22T04:05:12.875Z,95.78
2023-11-22T04:05:44.806Z,96.44
2023-11-22T04:06:17.861Z,96.61
2023-11-22T04:06:49.723Z,96.57
2023-11-22T04:07:21.550Z,96.16
2023-11-22T04:07:53.392Z,95.73
2023-11-22T04:08:25.656Z,96.33
2023-11-22T04:08:57.482Z,96.71
2023-11-22T04:09:30.618Z,96.05
2023-11-22T04:10:02.504Z,96.91
2023-11-22T04:10:34.333Z,96.48
2023-11-22T04:11:06.639Z,96.15
2023-11-22T04:11:38.489Z,97.03
2023-11-22T04:12:10.337Z,96.54
2023-11-22T04:12:42.163Z,96.49
2023-11-22T04:13:14.088Z,96.41
2023-11-22T04:13:46.358Z,96.71
2023-11-22T04:14:21.590Z,97.40
2023-11-22T04:14:53.943Z,96.41
2023-11-22T04:15:27.217Z,97.10
2023-11-22T04:15:59.389Z,97.48
2023-11-22T04:16:31.672Z,96.77
2023-11-22T04:17:04.201Z,96.62
2023-11-22T04:17:38.210Z,97.41
2023-11-22T04:18:10.690Z,96.45
2023-11-22T04:18:43.122Z,97.25
2023-11-22T04:19:15.235Z,97.19
2023-11-22T04:19:47.419Z,96.47
2023-11-22T04:20:19.258Z,96.47
2023-11-22T04:20:51.125Z,97.14
2023-11-22T04:21:22.965Z,97.02
2023-11-22T04:21:55.543Z,97.13
2023-11-22T04:22:27.504Z,97.49
2023-11-22T04:22:59.370Z,96.73
2023-11-22T04:23:31.263Z,96.58
2023-11-22T04:24:03.231Z,96.48
2023-11-22T04:24:35.058Z,97.29
2023-11-22T04:25:07.308Z,97.26
2023-11-22T04:25:39.383Z,96.57
2023-11-22T04:26:11.950Z,96.42
2023-11-22T04:26:43.810Z,96.69
2023-11-22T04:27:15.760Z,97.23
2023-11-22T04:27:47.796Z,97.18
2023-11-22T04:28:19.924Z,96.42
2023-11-22T04:28:51.820Z,97.30
2023-11-22T04:29:23.662Z,97.43
2023-11-22T04:29:56.005Z,97.26
2023-11-22T04:30:27.965Z,97.10
2023-11-22T04:31:00.049Z,97.42
2023-11-22T04:31:32.119Z,96.79
2023-11-22T04:32:04.289Z,96.67
2023-11-22T04:32:39.308Z,97.46
2023-11-22T04:33:11.388Z,96.67
2023-11-22T04:33:43.352Z,97.32
2023-11-22T04:34:15.214Z,97.14
2023-11-22T04:34:47.004Z,97.48
2023-11-22T04:35:18.915Z,97.64
2023-11-22T04:35:51.008Z,97.25
2023-11-22T04:36:25.524Z,97.46
2023-11-22T04:36:57.721Z,97.30
2023-11-22T04:37:32.974Z,97.83
2023-11-22T04:38:04.968Z,97.74
2023-11-22T04:38:36.913Z,96.88
2023-11-22T04:39:08.862Z,97.90
2023-11-22T04:39:40.736Z,97.57
2023-11-22T04:40:15.525Z,97.08
2023-11-22T04:40:47.390Z,97.02
2023-11-22T04:41:19.669Z,97.88
2023-11-22T04:41:52.066Z,97.29
2023-11-22T04:42:26.890Z,97.59
2023-11-22T04:42:58.709Z,96.99
2023-11-22T04:43:30.562Z,97.56
2023-11-22T04:44:03.009Z,97.39
2023-11-22T04:44:35.059Z,97.65
2023-11-22T04:45:07.750Z,97.46
2023-11-22T04:45:40.056Z,97.73
2023-11-22T04:46:12.033Z,97.36
2023-11-22T04:46:43.880Z,97.40
2023-11-22T04:47:15.803Z,98.07
2023-11-22T04:47:47.844Z,97.84
2023-11-22T04:48:20.104Z,97.16
2023-11-22T04:48:52.690Z,98.06
2023-11-22T04:49:24.614Z,97.43
2023-11-22T04:49:56.480Z,97.87
2023-11-22T04:50:28.371Z,98.19
2023-11-22T04:51:00.217Z,97.98
2023-11-22T04:51:33.340Z,97.51
2023-11-22T04:52:05.398Z,97.91
2023-11-22T04:52:37.299Z,97.75
2023-11-22T04:53:11.885Z,98.01
2023-11-22T04:53:45.305Z,97.50
2023-11-22T04:54:17.175Z,98.34
2023-11-22T04:54:49.302Z,98.44
2023-11-22T04:55:21.119Z,98.26
2023-11-22T04:55:52.926Z,97.78
2023-11-22T04:56:24.844Z,97.59
2023-11-22T04:56:56.854Z,98.04
2023-11-22T04:57:28.693Z,98.06
2023-11-22T04:58:00.506Z,97.86
2023-11-22T04:58:34.622Z,98.27
2023-11-22T04:59:06.507Z,97.71
2023-11-22T04:59:39.736Z,98.37
2023-11-22T05:00:12.262Z,98.33
2023-11-22T05:00:44.149Z,97.57
2023-11-22T05:01:17.733Z,98.04
2023-11-22T05:01:51.612Z,98.63
2023-11-22T05:02:23.463Z,98.34
2023-11-22T05:02:55.631Z,98.68
2023-11-22T05:03:27.543Z,98.39
2023-11-22T05:03:59.987Z,98.24
2023-11-22T05:04:31.850Z,97.83
2023-11-22T05:05:04.006Z,98.13
2023-11-22T05:05:35.989Z,97.92
2023-11-22T05:06:08.278Z,97.82
2023-11-22T05:06:40.097Z,97.60
2023-11-22T05:07:11.906Z,97.76
2023-11-22T05:07:45.797Z,98.25
2023-11-22T05:08:17.684Z,98.43
2023-11-22T05:08:49.631Z,98.13
2023-11-22T05:09:21.722Z,97.70
2023-11-22T05:09:53.635Z,97.34
2023-11-22T05:10:25.478Z,97.56
2023-11-22T05:10:57.446Z,97.94
2023-11-22T05:11:29.365Z,97.52
2023-11-22T05:12:01.329Z,97.46
2023-11-22T05:12:36.529Z,97.39
2023-11-22T05:13:08.687Z,97.93
2023-11-22T05:13:40.520Z,97.19
2023-11-22T05:14:12.407Z,98.14
2023-11-22T05:14:47.342Z,97.75
2023-11-22T05:15:19.252Z,97.86
2023-11-22T05:15:51.754Z,97.41
2023-11-22T05:16:24.945Z,97.29
2023-11-22T05:16:57.889Z,97.74
2023-11-22T05:17:30.040Z,97.04
2023-11-22T05:18:03.016Z,97.26
2023-11-22T05:18:34.858Z,97.38
2023-11-22T05:19:06.940Z,97.81
2023-11-22T05:19:38.955Z,97.18
2023-11-22T05:20:11.152Z,97.62
2023-11-22T05:20:43.179Z,97.35
2023-11-22T05:21:15.041Z,97.69
2023-11-22T05:21:46.873Z,97.82
2023-11-22T05:22:18.703Z,97.35
2023-11-22T05:22:50.564Z,96.90
2023-11-22T05:23:23.248Z,96.71
2023-11-22T05:23:55.686Z,97.19
2023-11-22T05:24:27.740Z,97.46
2023-11-22T05:24:59.588Z,96.86
2023-11-22T05:25:31.579Z,97.36
2023-11-22T05:26:03.416Z,96.65
2023-11-22T05:26:35.267Z,97.18
2023-11-22T05:27:07.755Z,97.02
2023-11-22T05:27:39.561Z,97.20
2023-11-22T05:28:11.393Z,96.94
2023-11-22T05:28:43.201Z,96.58
2023-11-22T05:29:15.279Z,96.35
2023-11-22T05:29:53.067Z,96.74
2023-11-22T05:30:27.489Z,96.98
2023-11-22T05:30:59.325Z,96.83
2023-11-22T05:31:31.208Z,96.59
2023-11-22T05:32:03.956Z,96.87
2023-11-22T05:32:35.943Z,96.90
2023-11-22T05:33:08.472Z,96.29
2023-11-22T05:33:41.172Z,96.42
2023-11-22T05:34:13.009Z,96.53
2023-11-22T05:34:44.856Z,96.80
2023-11-22T05:35:16.753Z,97.12
2023-11-22T05:35:48.644Z,97.21
2023-11-22T05:36:20.476Z,96.57
2023-11-22T05:36:52.961Z,96.81
2023-11-22T05:37:26.287Z,96.47
2023-11-22T05:37:59.195Z,96.49
2023-11-22T05:38:31.034Z,96.12
2023-11-22T05:39:04.851Z,96.93
2023-11-22T05:39:38.020Z,97.07
2023-11-22T05:40:11.150Z,96.48
2023-11-22T05:40:44.199Z,96.46
2023-11-22T05:41:16.860Z,97.17
2023-11-22T05:41:48.948Z,96.59
2023-11-22T05:42:20.765Z,96.49
2023-11-22T05:42:52.602Z,97.00
2023-11-22T05:43:27.873Z,96.44
2023-11-22T05:43:59.890Z,97.10
2023-11-22T05:44:31.797Z,96.76
2023-11-22T05:45:05.197Z,97.24
2023-11-22T05:45:37.194Z,97.46
2023-11-22T05:46:09.248Z,97.56
2023-11-22T05:46:41.087Z,97.16
2023-11-22T05:47:14.414Z,96.76
2023-11-22T05:47:46.550Z,97.24
2023-11-22T05:48:18.498Z,97.51
2023-11-22T05:48:51.908Z,96.92
2023-11-22T05:49:23.756Z,97.52
2023-11-22T05:49:55.591Z,97.34
2023-11-22T05:50:27.490Z,96.92
2023-11-22T05:50:59.435Z,97.74
2023-11-22T05:51:31.301Z,96.97
2023-11-22T05:52:03.150Z,97.34
2023-11-22T05:52:35.122Z,96.75
2023-11-22T05:53:06.970Z,96.82
2023-11-22T05:53:38.875Z,96.70
2023-11-22T05:54:12.971Z,96.81
2023-11-22T05:54:44.847Z,97.14
2023-11-22T05:55:16.780Z,97.30
2023-11-22T05:55:51.667Z,97.66
2023-11-22T05:56:23.492Z,97.10
2023-11-22T05:56:55.624Z,97.30
2023-11-22T05:57:27.481Z,97.47
2023-11-22T05:57:59.277Z,97.30
2023-11-22T05:58:31.099Z,98.08
2023-11-22T05:59:03.044Z,97.22
2023-11-22T05:59:35.173Z,97.85
2023-11-22T06:00:08.309Z,97.47
2023-11-22T06:00:40.179Z,97.95
2023-11-22T06:01:15.363Z,97.82
2023-11-22T06:01:47.188Z,97.18
2023-11-22T06:02:19.191Z,97.77
2023-11-22T06:02:51.357Z,97.82
2023-11-22T06:03:23.300Z,97.71
2023-11-22T06:03:55.467Z,97.49
2023-11-22T06:04:27.364Z,97.01
2023-11-22T06:04:59.275Z,97.32
2023-11-22T06:05:32.140Z,97.87
2023-11-22T06:06:04.322Z,97.86
2023-11-22T06:06:36.944Z,98.00
2023-11-22T06:07:09.204Z,97.05
2023-11-22T06:07:41.040Z,96.92
2023-11-22T06:08:13.062Z,97.32
2023-11-22T06:08:44.968Z,97.62
2023-11-22T06:09:16.863Z,97.50
2023-11-22T06:09:48.751Z,97.73
2023-11-22T06:10:20.987Z,97.14
2023-11-22T06:10:54.256Z,97.15
2023-11-22T06:11:26.629Z,97.08
2023-11-22T06:11:58.499Z,97.89
2023-11-22T06:12:30.293Z,97.68
2023-11-22T06:13:02.115Z,98.09
2023-11-22T06:13:33.952Z,98.23
2023-11-22T06:14:05.796Z,97.45
2023-11-22T06:14:37.834Z,97.75
2023-11-22T06:15:10.077Z,97.60
2023-11-22T06:15:42.444Z,98.10
2023-11-22T06:16:14.564Z,97.34
2023-11-22T06:16:46.412Z,97.81
2023-11-22T06:17:19.149Z,97.37
2023-11-22T06:17:51.175Z,97.42
2023-11-22T06:18:23.102Z,97.52
2023-11-22T06:18:54.969Z,97.11
2023-11-22T06:19:27.081Z,97.24
2023-11-22T06:19:58.936Z,97.64
2023-11-22T06:20:30.844Z,97.85
2023-11-22T06:21:02.777Z,97.52
2023-11-22T06:21:35.188Z,97.93
2023-11-22T06:22:08.010Z,97.79
2023-11-22T06:22:42.218Z,98.18
2023-11-22T06:23:14.474Z,98.16
2023-11-22T06:23:46.344Z,97.91
2023-11-22T06:24:18.221Z,98.23
2023-11-22T06:24:50.081Z,97.71
2023-11-22T06:25:21.947Z,97.81
2023-11-22T06:25:53.825Z,97.85
2023-11-22T06:26:26.207Z,97.38
2023-11-22T06:26:58.212Z,98.00
2023-11-22T06:27:30.043Z,98.19
2023-11-22T06:28:03.050Z,97.43
2023-11-22T06:28:36.219Z,97.36
2023-11-22T06:29:09.722Z,97.74
2023-11-22T06:29:41.663Z,98.34
2023-11-22T06:30:13.901Z,97.74
2023-11-22T06:30:45.742Z,98.47
2023-11-22T06:31:17.565Z,98.28
2023-11-22T06:31:49.418Z,97.99
2023-11-22T06:32:21.279Z,97.82
2023-11-22T06:32:53.160Z,98.57
2023-11-22T06:33:25.702Z,98.47
2023-11-22T06:33:57.701Z,97.85
2023-11-22T06:34:29.539Z,98.36
2023-11-22T06:35:01.598Z,97.85
2023-11-22T06:35:34.114Z,97.72
2023-11-22T06:36:06.153Z,97.69
2023-11-22T06:36:37.978Z,97.51
2023-11-22T06:37:10.024Z,98.01
2023-11-22T06:37:42.328Z,97.54
2023-11-22T06:38:14.174Z,97.59
2023-11-22T06:38:47.651Z,97.16
2023-11-22T06:39:19.561Z,97.33
2023-11-22T06:39:52.046Z,97.24
2023-11-22T06:40:24.013Z,97.06
2023-11-22T06:40:55.873Z,97.30
2023-11-22T06:41:27.734Z,97.81
2023-11-22T06:41:59.602Z,97.81
2023-11-22T06:42:31.441Z,97.08
2023-11-22T06:43:05.413Z,97.71
2023-11-22T06:43:37.264Z,97.19
2023-11-22T06:44:09.115Z,97.91
2023-11-22T06:44:43.736Z,97.87
2023-11-22T06:45:16.200Z,97.07
2023-11-22T06:45:48.059Z,97.52
2023-11-22T06:46:19.892Z,97.02
2023-11-22T06:46:51.790Z,97.19
2023-11-22T06:47:23.657Z,97.02
2023-11-22T06:47:55.672Z,96.97
2023-11-22T06:48:27.663Z,96.74
2023-11-22T06:48:59.865Z,96.78
2023-11-22T06:49:31.733Z,97.22
2023-11-22T06:50:10.307Z,97.37
2023-11-22T06:50:43.413Z,97.34
2023-11-22T06:51:15.543Z,97.43
2023-11-22T06:51:47.676Z,96.55
2023-11-22T06:52:20.072Z,96.79
2023-11-22T06:52:53.789Z,96.43
2023-11-22T06:53:26.952Z,97.05
2023-11-22T06:53:59.182Z,96.56
2023-11-22T06:54:32.372Z,97.12
2023-11-22T06:55:04.556Z,97.27
2023-11-22T06:55:36.390Z,97.27
2023-11-22T06:56:08.304Z,97.09
2023-11-22T06:56:40.248Z,97.14
2023-11-22T06:57:12.061Z,96.79
2023-11-22T06:57:43.889Z,97.13
2023-11-22T06:58:15.744Z,96.41